Time;durP1;ratioP1;P1;durP2;ratioP2;P2;SDS_P1;SDS_P2;PMS_P1;PMS_P2;Temp;Humidity;BMP_temperature;BMP_pressure;BME280_temperature;BME280_humidity;BME280_pressure;Samples;Min_cycle;Max_cycle;Signal;HPM_P1;HPM_P2
2023/10/14 00:02:24;;;;;;;10.98;4.22;;;21.20;99.90;;;;;;5038793;28;20025;-70
2023/10/14 00:04:53;;;;;;;16.15;4.47;;;21.20;99.90;;;;;;5039219;28;20022;-70
2023/10/14 00:07:20;;;;;;;8.70;3.92;;;21.20;99.90;;;;;;5037782;28;20018;-70
2023/10/14 00:09:49;;;;;;;11.00;3.72;;;21.20;99.90;;;;;;5038890;28;20017;-70
2023/10/14 00:12:15;;;;;;;9.23;4.05;;;21.30;99.90;;;;;;5039260;28;20048;-70
2023/10/14 00:14:44;;;;;;;12.88;4.43;;;21.20;99.90;;;;;;5038668;28;20026;-70
2023/10/14 00:17:14;;;;;;;9.25;3.80;;;21.30;99.90;;;;;;5038663;28;20025;-70
2023/10/14 00:19:40;;;;;;;14.80;4.43;;;21.30;99.90;;;;;;5038533;28;20017;-70
2023/10/14 00:22:07;;;;;;;13.57;4.35;;;21.20;99.90;;;;;;5039148;28;20027;-70
2023/10/14 00:24:37;;;;;;;13.80;4.50;;;21.20;99.90;;;;;;5038488;28;20024;-70
2023/10/14 00:27:07;;;;;;;8.80;3.67;;;21.20;99.90;;;;;;5038440;28;20033;-70
2023/10/14 00:29:34;;;;;;;12.80;3.88;;;21.20;99.90;;;;;;5038252;28;20264;-70
2023/10/14 00:32:03;;;;;;;7.57;3.95;;;21.20;99.90;;;;;;5038575;28;20025;-70
2023/10/14 00:34:29;;;;;;;11.38;3.97;;;21.10;99.90;;;;;;5037302;28;20033;-71
2023/10/14 00:36:58;;;;;;;11.35;4.28;;;21.10;99.90;;;;;;5037937;28;20036;-70
2023/10/14 00:39:26;;;;;;;10.05;4.30;;;21.10;99.90;;;;;;5037403;28;20032;-70
2023/10/14 00:41:53;;;;;;;12.88;4.38;;;21.00;99.90;;;;;;5037487;28;20025;-70
2023/10/14 00:44:20;;;;;;;8.73;4.32;;;20.90;99.90;;;;;;5038352;28;20044;-70
2023/10/14 00:46:49;;;;;;;12.07;3.90;;;20.90;99.90;;;;;;5038037;28;20029;-70
2023/10/14 00:49:22;;;;;;;9.35;4.13;;;20.90;99.90;;;;;;5037068;28;20040;-70
2023/10/14 00:51:51;;;;;;;11.23;3.67;;;20.80;99.90;;;;;;5038068;28;20022;-70
2023/10/14 00:57:09;;;;;;;13.07;3.88;;;20.80;99.90;;;;;;5037837;28;20022;-70
2023/10/14 00:59:35;;;;;;;7.53;3.67;;;20.80;99.90;;;;;;5037028;28;20025;-70
2023/10/14 01:02:05;;;;;;;11.82;4.03;;;20.80;99.90;;;;;;5036858;28;20022;-70
2023/10/14 01:04:34;;;;;;;14.52;4.82;;;20.90;99.90;;;;;;5037722;28;20018;-70
2023/10/14 01:07:12;;;;;;;8.23;3.83;;;20.80;99.90;;;;;;5037025;28;20079;-70
2023/10/14 01:12:22;;;;;;;12.45;3.78;;;20.80;99.90;;;;;;5037775;28;20030;-70
2023/10/14 01:14:52;;;;;;;11.00;3.90;;;20.80;99.90;;;;;;5036754;28;20026;-70
2023/10/14 01:17:30;;;;;;;7.43;3.65;;;20.80;99.90;;;;;;5037622;28;20017;-70
2023/10/14 01:20:10;;;;;;;11.57;3.20;;;20.80;99.90;;;;;;5037606;28;20025;-70
2023/10/14 01:22:38;;;;;;;11.63;4.27;;;20.80;99.90;;;;;;5037384;28;20033;-71
2023/10/14 01:25:06;;;;;;;9.32;3.60;;;20.70;99.90;;;;;;5036288;28;20032;-70
2023/10/14 01:27:35;;;;;;;13.23;3.80;;;20.80;99.90;;;;;;5037493;28;20080;-70
2023/10/14 01:30:08;;;;;;;9.93;2.83;;;20.80;99.90;;;;;;5037530;28;20017;-70
2023/10/14 01:32:49;;;;;;;11.70;3.40;;;20.80;99.90;;;;;;5037318;28;20120;-70
2023/10/14 01:37:54;;;;;;;12.75;3.58;;;20.80;99.90;;;;;;5037568;28;20021;-70
2023/10/14 01:40:27;;;;;;;7.95;3.50;;;20.70;99.90;;;;;;5036793;28;20026;-70
2023/10/14 01:42:58;;;;;;;9.73;3.00;;;20.80;99.90;;;;;;5037242;28;20025;-70
2023/10/14 01:45:27;;;;;;;8.30;3.53;;;20.80;99.90;;;;;;5036164;28;20022;-70
2023/10/14 01:50:34;;;;;;;12.13;3.80;;;20.80;99.90;;;;;;5037630;28;20033;-70
2023/10/14 01:53:09;;;;;;;15.20;3.33;;;20.80;99.90;;;;;;5036638;28;20029;-70
2023/10/14 01:55:35;;;;;;;11.63;3.28;;;20.90;99.90;;;;;;5037263;28;20100;-70
2023/10/14 01:58:02;;;;;;;10.68;3.30;;;20.90;99.90;;;;;;5037351;28;20049;-70
2023/10/14 02:00:35;;;;;;;13.38;3.10;;;21.00;99.90;;;;;;5036954;28;20037;-70
2023/10/14 02:03:06;;;;;;;9.23;2.50;;;21.00;99.90;;;;;;5036151;28;20029;-70
2023/10/14 02:05:39;;;;;;;5.85;2.33;;;21.00;99.90;;;;;;5036042;28;20025;-69
2023/10/14 02:08:13;;;;;;;7.25;2.25;;;21.00;99.90;;;;;;5036026;28;20079;-70
2023/10/14 02:10:50;;;;;;;4.70;2.50;;;21.00;99.90;;;;;;5036054;28;20029;-70
2023/10/14 02:13:19;;;;;;;8.98;2.63;;;21.00;99.90;;;;;;5035920;28;20037;-70
2023/10/14 02:15:46;;;;;;;11.30;2.60;;;21.00;99.90;;;;;;5036680;28;20029;-69
2023/10/14 02:18:20;;;;;;;6.32;2.78;;;21.00;99.90;;;;;;5035936;28;20160;-70
2023/10/14 02:20:56;;;;;;;10.68;2.40;;;21.00;99.90;;;;;;5036822;28;20013;-70
2023/10/14 02:23:43;;;;;;;6.45;2.22;;;21.00;99.90;;;;;;5038629;28;20085;-70
2023/10/14 02:26:30;;;;;;;9.38;2.50;;;20.90;99.90;;;;;;5058001;22;20125;-72
2023/10/14 02:28:57;;;;;;;10.05;2.17;;;20.90;99.90;;;;;;5021194;28;20024;-73
2023/10/14 02:34:05;;;;;;;7.05;2.17;;;20.90;99.90;;;;;;5021172;28;20102;-73
2023/10/14 02:36:35;;;;;;;7.38;1.80;;;20.90;99.90;;;;;;5020617;28;20026;-66
2023/10/14 02:39:04;;;;;;;6.65;2.17;;;20.80;99.90;;;;;;5020687;28;20029;-66
2023/10/14 02:41:32;;;;;;;6.63;2.28;;;20.80;99.90;;;;;;5020638;28;20022;-66
2023/10/14 02:44:19;;;;;;;2.97;1.38;;;20.70;99.90;;;;;;5020555;28;20022;-66
2023/10/14 02:46:46;;;;;;;7.22;1.90;;;20.70;99.90;;;;;;5020561;28;20098;-66
2023/10/14 02:49:15;;;;;;;5.45;1.40;;;20.70;99.90;;;;;;5020503;28;20072;-66
2023/10/14 02:51:43;;;;;;;4.53;1.30;;;20.70;99.90;;;;;;5019634;28;20030;-65
2023/10/14 02:54:15;;;;;;;4.55;1.42;;;20.60;99.90;;;;;;5020418;28;20050;-66
2023/10/14 02:59:17;;;;;;;2.40;1.20;;;20.60;99.90;;;;;;5020652;28;20030;-66
2023/10/14 03:01:44;;;;;;;3.33;1.40;;;20.60;99.90;;;;;;5020304;28;20014;-66
2023/10/14 03:04:12;;;;;;;7.30;1.38;;;20.50;99.90;;;;;;5020550;28;20020;-66
2023/10/14 03:06:46;;;;;;;6.40;1.50;;;20.50;99.90;;;;;;5020071;28;20057;-66
2023/10/14 03:09:18;;;;;;;7.88;1.55;;;20.50;99.90;;;;;;5020683;28;20021;-66
2023/10/14 03:11:49;;;;;;;5.10;1.30;;;20.50;99.90;;;;;;5019941;28;20032;-66
2023/10/14 03:14:17;;;;;;;;;;;20.50;99.90;;;;;;5020019;28;20034;-66
2023/10/14 03:16:44;;;;;;;3.90;0.98;;;20.50;99.90;;;;;;5019983;28;20025;-66
2023/10/14 03:19:11;;;;;;;3.78;1.15;;;20.50;99.90;;;;;;5019847;28;20062;-68
2023/10/14 03:21:41;;;;;;;12.55;1.45;;;20.50;99.90;;;;;;5020193;28;20022;-68
2023/10/14 03:24:06;;;;;;;3.80;1.40;;;20.40;99.90;;;;;;5019831;28;20018;-75
2023/10/14 03:26:32;;;;;;;5.53;1.27;;;20.20;99.90;;;;;;5019563;28;20041;-75
2023/10/14 03:29:04;;;;;;;8.05;1.27;;;20.00;99.90;;;;;;5020186;28;20060;-71
2023/10/14 03:31:35;;;;;;;4.50;1.45;;;19.80;99.90;;;;;;5019921;28;20033;-71
2023/10/14 03:34:08;;;;;;;4.13;1.35;;;19.80;99.90;;;;;;5019396;28;20033;-71
2023/10/14 03:36:33;;;;;;;9.10;1.50;;;19.80;99.90;;;;;;5019562;28;20092;-70
2023/10/14 03:38:59;;;;;;;5.85;1.15;;;19.80;99.90;;;;;;5018889;28;20022;-71
2023/10/14 03:41:37;;;;;;;2.55;0.90;;;19.70;99.90;;;;;;5019574;28;20022;-71
2023/10/14 03:44:09;;;;;;;3.35;1.08;;;19.60;99.90;;;;;;5019647;28;20014;-71
2023/10/14 03:46:42;;;;;;;2.42;0.80;;;19.40;99.90;;;;;;5019433;28;20026;-71
2023/10/14 03:49:20;;;;;;;4.60;1.10;;;19.20;99.90;;;;;;5019684;28;20022;-71
2023/10/14 03:51:47;;;;;;;3.80;0.98;;;19.20;99.90;;;;;;5019715;28;20026;-70
2023/10/14 03:54:19;;;;;;;4.88;1.08;;;19.20;99.90;;;;;;5019754;28;20092;-71
2023/10/14 03:56:45;;;;;;;2.75;0.88;;;19.20;99.90;;;;;;5019259;28;20108;-71
2023/10/14 03:59:25;;;;;;;4.20;1.08;;;19.20;99.90;;;;;;5018437;28;20022;-71
2023/10/14 04:01:57;;;;;;;3.22;0.70;;;19.20;99.90;;;;;;5018374;28;20025;-70
2023/10/14 04:04:29;;;;;;;6.47;0.98;;;19.10;99.90;;;;;;5019403;28;20030;-70
2023/10/14 04:09:36;;;;;;;5.35;1.08;;;18.90;99.90;;;;;;5019197;28;20022;-70
2023/10/14 04:12:07;;;;;;;2.05;0.70;;;18.80;99.90;;;;;;5019565;28;20033;-70
2023/10/14 04:14:36;;;;;;;3.10;0.45;;;18.80;99.90;;;;;;5019176;28;20030;-70
2023/10/14 04:19:47;;;;;;;4.20;0.95;;;18.50;99.90;;;;;;5019207;28;20021;-70
2023/10/14 04:22:38;;;;;;;7.00;0.70;;;18.40;99.90;;;;;;5017926;28;20029;-70
2023/10/14 04:25:19;;;;;;;8.27;1.23;;;18.30;99.90;;;;;;5018792;28;20096;-70
2023/10/14 04:30:21;;;;;;;2.25;0.60;;;18.30;99.90;;;;;;5019005;28;20030;-71
2023/10/14 04:35:23;;;;;;;2.38;1.15;;;18.30;99.90;;;;;;5019558;28;20061;-71
2023/10/14 04:37:52;;;;;;;3.22;0.55;;;18.20;99.90;;;;;;5018429;28;20022;-71
2023/10/14 04:45:51;;;;;;;2.55;0.47;;;18.20;99.90;;;;;;4996220;28;20042;-70
2023/10/14 04:48:17;;;;;;;2.60;0.60;;;18.20;99.90;;;;;;4981128;28;20130;-70
2023/10/14 04:50:47;;;;;;;3.28;0.50;;;18.20;99.90;;;;;;4997277;28;20041;-71
2023/10/14 04:53:13;;;;;;;5.45;0.70;;;18.00;99.90;;;;;;4996970;28;20026;-71
2023/10/14 04:55:45;;;;;;;4.38;0.68;;;17.70;99.90;;;;;;4980658;28;20027;-71
2023/10/14 05:00:48;;;;;;;2.35;0.40;;;17.40;99.90;;;;;;4997099;28;20077;-71
2023/10/14 05:03:19;;;;;;;1.77;0.70;;;17.30;99.90;;;;;;4997136;28;20030;-71
2023/10/14 05:05:49;;;;;;;3.78;0.40;;;17.20;99.90;;;;;;4996901;28;20026;-71
2023/10/14 05:08:21;;;;;;;1.25;0.38;;;17.30;99.90;;;;;;4996999;28;20030;-71
2023/10/14 05:10:50;;;;;;;0.82;0.35;;;17.30;99.90;;;;;;4996798;28;20038;-71
2023/10/14 05:13:19;;;;;;;0.55;0.20;;;17.30;99.90;;;;;;4997102;28;20170;-70
2023/10/14 05:15:52;;;;;;;0.45;0.20;;;17.30;99.90;;;;;;4996382;28;20026;-70
2023/10/14 05:18:27;;;;;;;0.55;0.35;;;17.30;99.90;;;;;;4996654;28;20030;-70
2023/10/14 05:21:12;;;;;;;0.40;0.20;;;17.40;99.90;;;;;;5015649;28;20037;-71
2023/10/14 05:23:41;;;;;;;0.35;0.10;;;17.30;99.90;;;;;;5017772;28;20028;-71
2023/10/14 05:26:07;;;;;;;0.60;0.32;;;17.30;99.90;;;;;;5017592;28;20133;-71
2023/10/14 05:28:36;;;;;;;0.25;0.15;;;17.30;99.90;;;;;;5017646;28;20037;-71
2023/10/14 05:31:09;;;;;;;0.03;0.03;;;17.20;99.90;;;;;;5018198;28;20021;-71
2023/10/14 05:33:35;;;;;;;0.30;0.30;;;17.10;99.90;;;;;;5017724;28;20025;-71
2023/10/14 05:36:01;;;;;;;0.20;0.20;;;17.00;99.90;;;;;;5017356;28;20080;-71
2023/10/14 05:38:30;;;;;;;0.30;0.20;;;17.00;99.90;;;;;;5017689;28;20068;-71
2023/10/14 05:40:58;;;;;;;1.25;0.30;;;17.00;99.90;;;;;;5017409;28;20072;-71
2023/10/14 05:43:24;;;;;;;0.22;0.22;;;17.10;99.90;;;;;;5017447;28;20029;-71
2023/10/14 05:45:53;;;;;;;0.50;0.30;;;17.00;99.90;;;;;;5017239;28;20081;-71
2023/10/14 05:48:30;;;;;;;0.30;0.30;;;17.00;99.90;;;;;;5017447;28;20025;-71
2023/10/14 05:50:56;;;;;;;0.20;0.10;;;17.00;99.90;;;;;;5017483;28;20088;-71
2023/10/14 05:53:26;;;;;;;0.95;0.28;;;17.00;99.90;;;;;;5017387;28;20037;-71
2023/10/14 05:55:59;;;;;;;0.20;0.10;;;17.00;99.90;;;;;;5017020;28;20105;-71
2023/10/14 05:58:28;;;;;;;1.25;0.30;;;17.00;99.90;;;;;;5017235;28;20026;-71
2023/10/14 06:00:54;;;;;;;0.10;0.10;;;16.90;99.90;;;;;;5017554;28;20155;-71
2023/10/14 06:03:20;;;;;;;0.28;0.25;;;16.90;99.90;;;;;;5017197;28;20026;-71
2023/10/14 06:05:45;;;;;;;0.15;0.15;;;16.80;99.90;;;;;;5017146;28;20034;-71
2023/10/14 06:08:20;;;;;;;0.85;0.30;;;16.70;99.90;;;;;;5017484;28;20026;-71
2023/10/14 06:10:46;;;;;;;1.27;0.30;;;16.70;99.90;;;;;;5017239;28;20061;-71
2023/10/14 06:13:13;;;;;;;0.38;0.30;;;16.60;99.90;;;;;;5017375;28;20026;-71
2023/10/14 06:15:41;;;;;;;0.30;0.30;;;16.80;99.90;;;;;;5016991;28;20044;-71
2023/10/14 06:18:08;;;;;;;1.00;0.30;;;16.80;99.90;;;;;;5017117;28;20045;-71
2023/10/14 06:20:34;;;;;;;0.15;0.10;;;16.80;99.90;;;;;;5017211;28;20073;-71
2023/10/14 06:23:01;;;;;;;0.40;0.40;;;16.80;99.90;;;;;;5017068;28;20029;-71
2023/10/14 06:25:29;;;;;;;1.02;0.30;;;16.80;99.90;;;;;;5016835;28;20061;-71
2023/10/14 06:27:55;;;;;;;1.75;0.38;;;16.70;99.90;;;;;;5017064;28;20030;-71
2023/10/14 06:30:21;;;;;;;0.32;0.17;;;16.60;99.90;;;;;;5016927;28;20021;-71
2023/10/14 06:32:48;;;;;;;0.75;0.30;;;16.60;99.90;;;;;;5017124;28;20030;-71
2023/10/14 06:35:17;;;;;;;0.10;0.10;;;16.60;99.90;;;;;;5016950;28;20030;-71
2023/10/14 06:37:45;;;;;;;0.22;0.22;;;16.50;99.90;;;;;;5016055;28;20108;-70
2023/10/14 06:40:12;;;;;;;0.93;0.20;;;16.40;99.90;;;;;;5017100;28;20018;-70
2023/10/14 06:42:45;;;;;;;0.17;0.17;;;16.40;99.90;;;;;;5017060;28;20018;-71
2023/10/14 06:45:14;;;;;;;1.50;0.10;;;16.30;99.90;;;;;;5016836;28;20148;-71
2023/10/14 06:47:46;;;;;;;2.15;0.50;;;16.20;99.90;;;;;;5016779;28;20060;-75
2023/10/14 06:50:12;;;;;;;3.22;0.85;;;15.90;99.90;;;;;;5017048;28;20025;-75
2023/10/14 06:52:39;;;;;;;6.80;1.27;;;15.80;99.90;;;;;;5016958;28;20033;-75
2023/10/14 06:55:07;;;;;;;7.13;1.10;;;15.60;99.90;;;;;;5016300;28;20022;-75
2023/10/14 06:57:42;;;;;;;10.73;0.90;;;15.50;99.90;;;;;;5016793;28;20045;-75
2023/10/14 07:00:12;;;;;;;5.72;0.95;;;15.40;99.90;;;;;;5016733;28;20029;-70
2023/10/14 07:02:38;;;;;;;3.30;0.95;;;15.30;99.90;;;;;;5016688;28;20018;-70
2023/10/14 07:05:04;;;;;;;6.50;0.93;;;15.20;99.90;;;;;;5015952;28;20040;-75
2023/10/14 07:07:29;;;;;;;6.28;1.05;;;15.10;99.90;;;;;;5016025;28;20029;-68
2023/10/14 07:09:55;;;;;;;4.07;1.27;;;15.20;99.90;;;;;;5019721;28;20018;-70
2023/10/14 07:12:21;;;;;;;3.58;1.15;;;15.20;99.90;;;;;;5020178;28;20026;-70
2023/10/14 07:14:47;;;;;;;3.38;1.00;;;15.20;99.90;;;;;;5019984;28;20116;-71
2023/10/14 07:17:17;;;;;;;8.57;1.63;;;15.10;99.90;;;;;;5018959;28;20033;-70
2023/10/14 07:19:43;;;;;;;3.53;1.20;;;15.00;99.90;;;;;;5019147;28;20048;-68
2023/10/14 07:22:09;;;;;;;10.00;1.33;;;15.20;99.90;;;;;;5019314;28;20022;-68
2023/10/14 07:24:38;;;;;;;3.30;1.20;;;15.20;99.90;;;;;;5019101;28;20025;-68
2023/10/14 07:27:03;;;;;;;5.35;1.70;;;15.20;99.90;;;;;;5019557;28;20049;-68
2023/10/14 07:29:29;;;;;;;7.82;1.60;;;15.20;99.90;;;;;;5018901;28;20030;-69
2023/10/14 07:31:55;;;;;;;4.30;1.08;;;15.40;99.90;;;;;;5018859;28;20032;-68
2023/10/14 07:34:22;;;;;;;6.38;1.50;;;15.60;99.90;;;;;;5018912;28;20053;-71
2023/10/14 07:36:50;;;;;;;9.48;1.80;;;15.80;99.90;;;;;;5018627;28;20022;-71
2023/10/14 07:39:28;;;;;;;5.75;1.50;;;15.90;99.90;;;;;;5018749;28;20053;-71
2023/10/14 07:41:54;;;;;;;7.95;1.40;;;15.90;99.90;;;;;;5019605;28;20032;-70
2023/10/14 07:44:20;;;;;;;9.90;1.75;;;15.80;99.90;;;;;;5018960;28;20018;-71
2023/10/14 07:46:46;;;;;;;6.90;1.15;;;15.80;99.90;;;;;;5018471;28;20121;-71
2023/10/14 07:49:13;;;;;;;7.07;1.45;;;15.80;99.90;;;;;;5018708;28;20080;-71
2023/10/14 07:51:39;;;;;;;5.32;1.27;;;15.90;99.90;;;;;;5018345;28;20034;-71
2023/10/14 07:54:06;;;;;;;4.90;1.30;;;16.00;99.90;;;;;;5018856;28;20049;-71
2023/10/14 07:56:32;;;;;;;3.55;0.80;;;16.10;99.90;;;;;;5018168;28;20026;-71
2023/10/14 07:58:57;;;;;;;11.27;1.33;;;16.00;99.90;;;;;;5019206;28;20030;-71
2023/10/14 08:01:23;;;;;;;6.68;1.88;;;16.20;99.90;;;;;;5018582;28;20041;-70
2023/10/14 08:03:49;;;;;;;10.93;1.45;;;16.20;99.90;;;;;;5018161;28;20041;-71
2023/10/14 08:06:17;;;;;;;6.70;1.40;;;16.10;99.90;;;;;;5019265;28;20033;-71
2023/10/14 08:08:47;;;;;;;10.05;2.17;;;16.10;99.90;;;;;;5018118;28;20177;-70
2023/10/14 08:11:14;;;;;;;4.20;1.30;;;16.00;99.90;;;;;;5018848;28;20163;-70
2023/10/14 08:13:43;;;;;;;9.82;2.10;;;15.90;99.90;;;;;;5018320;28;20030;-71
2023/10/14 08:16:09;;;;;;;5.97;1.30;;;15.90;99.90;;;;;;5017752;28;20026;-70
2023/10/14 08:18:36;;;;;;;7.68;1.63;;;15.80;99.90;;;;;;5019428;28;20022;-71
2023/10/14 08:21:03;;;;;;;9.30;1.27;;;15.80;99.90;;;;;;5018665;28;20096;-70
2023/10/14 08:23:28;;;;;;;9.27;1.90;;;15.90;99.90;;;;;;5017828;28;20026;-71
2023/10/14 08:25:55;;;;;;;5.25;1.02;;;15.90;99.90;;;;;;5018081;28;20032;-72
2023/10/14 08:28:32;;;;;;;9.13;1.73;;;15.90;99.90;;;;;;5019012;28;20060;-74
2023/10/14 08:30:59;;;;;;;6.13;1.30;;;15.90;99.90;;;;;;5017825;28;20030;-73
2023/10/14 08:33:28;;;;;;;4.40;1.25;;;16.00;99.90;;;;;;5018791;28;20029;-73
2023/10/14 08:35:55;;;;;;;9.07;1.40;;;16.10;99.90;;;;;;5018460;28;20030;-73
2023/10/14 08:38:27;;;;;;;7.80;2.08;;;16.10;99.90;;;;;;5018414;28;20018;-73
2023/10/14 08:40:53;;;;;;;6.18;1.20;;;16.10;99.90;;;;;;5018066;28;20033;-73
2023/10/14 08:43:26;;;;;;;4.88;1.15;;;16.20;99.90;;;;;;5017639;28;20072;-76
2023/10/14 08:45:53;;;;;;;6.68;1.08;;;16.30;99.90;;;;;;5018249;28;20022;-75
2023/10/14 08:48:23;;;;;;;3.10;1.20;;;16.50;99.90;;;;;;5018345;28;20018;-76
2023/10/14 08:50:52;;;;;;;5.85;1.40;;;16.40;99.90;;;;;;5018258;28;20082;-75
2023/10/14 08:53:21;;;;;;;13.07;2.00;;;16.40;99.90;;;;;;5018343;28;20022;-75
2023/10/14 08:55:47;;;;;;;12.80;1.75;;;16.50;99.90;;;;;;5018120;28;20049;-75
2023/10/14 08:58:17;;;;;;;3.70;1.17;;;16.60;99.90;;;;;;5018342;28;20084;-74
2023/10/14 09:00:44;;;;;;;9.68;1.92;;;16.90;99.90;;;;;;5018056;28;20022;-74
2023/10/14 09:03:10;;;;;;;5.63;1.10;;;16.90;99.90;;;;;;5017123;28;20026;-75
2023/10/14 09:05:40;;;;;;;8.13;1.23;;;16.70;99.90;;;;;;5018113;28;20038;-75
2023/10/14 09:08:09;;;;;;;5.25;1.05;;;16.50;99.90;;;;;;5017927;28;20037;-67
2023/10/14 09:10:36;;;;;;;6.65;1.30;;;16.50;99.90;;;;;;5017883;28;20030;-68
2023/10/14 09:13:09;;;;;;;3.67;1.55;;;16.60;99.90;;;;;;5018054;28;20026;-67
2023/10/14 09:15:41;;;;;;;7.45;1.38;;;16.70;99.90;;;;;;5016773;28;20036;-67
2023/10/14 09:18:21;;;;;;;7.30;1.65;;;16.70;99.90;;;;;;5018095;28;20025;-67
2023/10/14 09:20:53;;;;;;;12.13;1.83;;;16.70;99.90;;;;;;5016876;28;20060;-68
2023/10/14 09:23:25;;;;;;;6.53;1.48;;;16.50;99.90;;;;;;5017747;28;20026;-75
2023/10/14 09:25:58;;;;;;;7.47;2.00;;;16.50;99.90;;;;;;5017604;28;20026;-73
2023/10/14 09:28:34;;;;;;;10.38;1.63;;;16.40;99.90;;;;;;5017507;28;20036;-74
2023/10/14 09:31:02;;;;;;;10.40;1.70;;;16.40;99.90;;;;;;5017481;28;20052;-74
2023/10/14 09:33:33;;;;;;;7.53;1.92;;;16.40;99.90;;;;;;5016959;28;20026;-74
2023/10/14 09:36:04;;;;;;;5.82;1.52;;;16.50;99.90;;;;;;5016505;28;20063;-74
2023/10/14 09:38:33;;;;;;;8.32;1.50;;;16.70;99.90;;;;;;5017417;28;20022;-74
2023/10/14 09:41:04;;;;;;;11.68;2.28;;;16.50;99.90;;;;;;5016569;28;20025;-75
2023/10/14 09:43:42;;;;;;;11.13;2.53;;;16.40;99.90;;;;;;5016669;28;20022;-74
2023/10/14 09:46:11;;;;;;;6.25;2.30;;;16.20;99.90;;;;;;5017785;28;20084;-74
2023/10/14 09:48:39;;;;;;;8.20;3.10;;;16.10;99.90;;;;;;5017637;28;20030;-74
2023/10/14 09:51:08;;;;;;;16.67;2.03;;;16.00;99.90;;;;;;5017380;28;20042;-74
2023/10/14 09:53:35;;;;;;;6.70;1.88;;;16.10;99.90;;;;;;5016341;28;20026;-75
2023/10/14 09:56:07;;;;;;;10.98;3.42;;;16.10;99.90;;;;;;5016516;28;20117;-75
2023/10/14 09:58:43;;;;;;;8.07;1.45;;;16.50;99.90;;;;;;5017486;28;20018;-75
2023/10/14 10:01:17;;;;;;;4.00;1.45;;;16.70;99.90;;;;;;5017290;28;20030;-75
2023/10/14 10:04:06;;;;;;;14.77;3.83;;;17.10;99.90;;;;;;5017240;28;20072;-75
2023/10/14 10:06:46;;;;;;;7.18;1.63;;;17.30;99.90;;;;;;5017227;28;20022;-76
2023/10/14 10:09:27;;;;;;;8.30;1.80;;;17.50;99.90;;;;;;5016224;28;20037;-76
2023/10/14 10:11:55;;;;;;;6.78;1.40;;;17.50;99.90;;;;;;5016293;28;20048;-76
2023/10/14 10:14:22;;;;;;;9.93;1.30;;;17.50;99.90;;;;;;5017047;28;20045;-76
2023/10/14 10:16:52;;;;;;;11.95;1.50;;;17.60;99.90;;;;;;5017245;28;20030;-76
2023/10/14 10:19:21;;;;;;;7.25;1.23;;;17.60;99.90;;;;;;5017906;28;20022;-76
2023/10/14 10:22:13;;;;;;;7.07;1.90;;;17.80;99.90;;;;;;5016998;28;20072;-76
2023/10/14 10:24:41;;;;;;;12.48;1.55;;;17.80;99.90;;;;;;5017242;28;20054;-76
2023/10/14 10:27:10;;;;;;;7.30;1.60;;;17.70;99.90;;;;;;5015909;28;20033;-75
2023/10/14 10:29:45;;;;;;;8.45;2.75;;;18.00;99.90;;;;;;5016910;28;20101;-75
2023/10/14 10:32:22;;;;;;;9.25;2.30;;;18.10;99.90;;;;;;5016194;28;20030;-76
2023/10/14 10:35:06;;;;;;;6.40;1.55;;;17.80;99.90;;;;;;5015981;28;20025;-75
2023/10/14 10:37:35;;;;;;;6.18;1.25;;;17.50;99.90;;;;;;5016801;28;20041;-75
2023/10/14 10:40:05;;;;;;;9.00;1.42;;;17.60;99.90;;;;;;5016779;28;20072;-77
2023/10/14 10:42:31;;;;;;;6.05;1.52;;;17.60;99.90;;;;;;5016942;28;20022;-75
2023/10/14 10:45:00;;;;;;;7.85;1.63;;;17.50;99.90;;;;;;5019919;28;20028;-75
2023/10/14 10:47:29;;;;;;;8.32;1.60;;;17.60;99.90;;;;;;5019884;28;20029;-75
2023/10/14 10:49:59;;;;;;;7.72;1.60;;;17.60;99.90;;;;;;5020552;28;20029;-76
2023/10/14 10:52:26;;;;;;;6.65;1.45;;;17.70;99.90;;;;;;5020443;28;20029;-75
2023/10/14 10:54:52;;;;;;;8.45;1.50;;;17.70;99.90;;;;;;5019629;28;20026;-75
2023/10/14 10:57:19;;;;;;;5.43;1.27;;;17.60;99.90;;;;;;5019406;28;20100;-75
2023/10/14 10:59:46;;;;;;;7.00;1.60;;;17.50;99.90;;;;;;5019461;28;20025;-75
2023/10/14 11:02:13;;;;;;;11.63;1.88;;;17.40;99.90;;;;;;5020415;28;20041;-75
2023/10/14 11:04:41;;;;;;;8.05;1.80;;;17.30;99.90;;;;;;5020183;28;20022;-75
2023/10/14 11:07:08;;;;;;;4.47;1.63;;;17.40;99.90;;;;;;5020300;28;20026;-75
2023/10/14 11:09:40;;;;;;;8.30;1.88;;;17.50;99.90;;;;;;5020331;28;20033;-75
2023/10/14 11:12:11;;;;;;;3.38;1.40;;;17.60;99.90;;;;;;5019303;28;20026;-76
2023/10/14 11:14:37;;;;;;;8.00;1.95;;;17.70;99.90;;;;;;5020173;28;20026;-75
2023/10/14 11:17:04;;;;;;;6.35;1.83;;;17.70;99.90;;;;;;5020028;28;20104;-76
2023/10/14 11:19:31;;;;;;;3.25;1.38;;;17.90;99.90;;;;;;5019137;28;20022;-75
2023/10/14 11:21:58;;;;;;;4.55;1.50;;;18.00;99.90;;;;;;5019869;28;20041;-75
2023/10/14 11:24:25;;;;;;;7.18;1.65;;;17.90;99.90;;;;;;5019842;28;20022;-75
2023/10/14 11:26:51;;;;;;;10.18;1.50;;;17.80;99.90;;;;;;5019817;28;20113;-76
2023/10/14 11:29:17;;;;;;;8.95;2.05;;;17.90;99.90;;;;;;5018913;28;20045;-75
2023/10/14 11:31:44;;;;;;;9.10;1.92;;;17.90;99.90;;;;;;5019676;28;20025;-75
2023/10/14 11:34:12;;;;;;;4.07;1.73;;;18.00;99.90;;;;;;5019964;28;20029;-75
2023/10/14 11:36:42;;;;;;;6.28;1.73;;;18.10;99.90;;;;;;5018962;28;20108;-75
2023/10/14 11:39:13;;;;;;;8.13;1.50;;;18.40;99.90;;;;;;5019812;28;20029;-75
2023/10/14 11:41:41;;;;;;;11.23;1.50;;;18.40;99.90;;;;;;5019682;28;20050;-75
2023/10/14 11:44:06;;;;;;;11.77;1.90;;;18.40;99.90;;;;;;5018652;28;20033;-75
2023/10/14 11:46:38;;;;;;;6.93;1.58;;;18.30;99.90;;;;;;5019492;28;20053;-75
2023/10/14 11:49:09;;;;;;;8.05;1.70;;;18.30;99.90;;;;;;5019150;28;20037;-75
2023/10/14 11:51:39;;;;;;;10.32;2.15;;;18.30;99.90;;;;;;5019381;28;20053;-75
2023/10/14 11:54:07;;;;;;;3.92;1.30;;;18.40;99.90;;;;;;5019090;28;20049;-75
2023/10/14 11:56:33;;;;;;;5.38;1.77;;;18.40;99.90;;;;;;5018894;28;20064;-75
2023/10/14 11:59:00;;;;;;;4.72;1.40;;;18.30;99.90;;;;;;5019733;28;20014;-75
2023/10/14 12:01:26;;;;;;;8.50;1.63;;;18.40;99.90;;;;;;5018279;28;20089;-76
2023/10/14 12:03:52;;;;;;;11.40;1.73;;;18.30;99.90;;;;;;5019109;28;20018;-75
2023/10/14 12:06:17;;;;;;;4.85;1.80;;;18.30;99.90;;;;;;5018204;28;20029;-75
2023/10/14 12:08:45;;;;;;;8.30;1.67;;;18.30;99.90;;;;;;5019015;28;20025;-75
2023/10/14 12:11:13;;;;;;;6.50;1.30;;;18.20;99.90;;;;;;5019093;28;20037;-76
2023/10/14 12:13:40;;;;;;;6.70;2.10;;;18.30;99.90;;;;;;5018900;28;20075;-76
2023/10/14 12:16:06;;;;;;;9.68;1.75;;;18.20;99.90;;;;;;5018928;28;20030;-75
2023/10/14 12:18:36;;;;;;;5.53;1.85;;;18.20;99.90;;;;;;5017873;28;20090;-75
2023/10/14 12:21:02;;;;;;;8.20;1.35;;;18.20;99.90;;;;;;5017909;28;20019;-76
2023/10/14 12:23:31;;;;;;;7.22;1.48;;;18.40;99.90;;;;;;5017807;28;20018;-76
2023/10/14 12:26:01;;;;;;;8.40;1.80;;;18.50;99.90;;;;;;5018716;28;20062;-75
2023/10/14 12:28:33;;;;;;;7.38;1.20;;;18.30;99.90;;;;;;5018999;28;20030;-75
2023/10/14 12:31:06;;;;;;;8.52;1.65;;;18.00;99.90;;;;;;5018651;28;20168;-75
2023/10/14 12:33:35;;;;;;;8.20;1.73;;;18.00;99.90;;;;;;5018823;28;20076;-75
2023/10/14 12:36:06;;;;;;;5.38;1.75;;;18.20;99.90;;;;;;5018495;28;20040;-75
2023/10/14 12:38:32;;;;;;;8.18;1.40;;;18.40;99.90;;;;;;5018541;28;20045;-75
2023/10/14 12:41:01;;;;;;;9.85;2.03;;;18.70;99.90;;;;;;5018603;28;20026;-75
2023/10/14 12:43:28;;;;;;;6.25;1.92;;;18.70;99.90;;;;;;5018985;28;20031;-75
2023/10/14 12:46:33;;;;;;;9.98;2.08;;;19.00;99.90;;;;;;5018400;28;20037;-75
2023/10/14 12:48:50;;;;;;;7.00;1.52;;;19.20;99.90;;;;;;5017267;28;20036;-75
2023/10/14 12:51:17;;;;;;;8.07;1.63;;;19.40;99.90;;;;;;5018722;28;20033;-73
2023/10/14 12:53:48;;;;;;;5.80;1.77;;;19.60;99.90;;;;;;5018190;28;20029;-73
2023/10/14 12:56:20;;;;;;;7.60;1.42;;;19.40;99.90;;;;;;5018327;28;20053;-73
2023/10/14 12:58:48;;;;;;;7.63;1.23;;;19.20;99.90;;;;;;5018265;28;20053;-73
2023/10/14 13:01:18;;;;;;;6.40;1.60;;;18.80;99.90;;;;;;5017518;28;20026;-73
2023/10/14 13:03:56;;;;;;;7.88;1.67;;;18.60;99.90;;;;;;5017420;28;20018;-72
2023/10/14 13:06:23;;;;;;;9.60;1.88;;;18.80;99.90;;;;;;5017389;28;20072;-73
2023/10/14 13:08:51;;;;;;;4.10;1.30;;;19.20;99.90;;;;;;5017845;28;20028;-73
2023/10/14 13:11:17;;;;;;;5.68;1.38;;;20.20;99.90;;;;;;5018012;28;20026;-73
2023/10/14 13:13:46;;;;;;;5.35;1.65;;;21.30;99.90;;;;;;5017840;28;20021;-73
2023/10/14 13:16:12;;;;;;;8.95;1.30;;;21.20;99.90;;;;;;5017735;28;20022;-74
2023/10/14 13:18:37;;;;;;;3.65;1.20;;;20.70;99.90;;;;;;5017146;28;20029;-73
2023/10/14 13:21:05;;;;;;;8.63;1.50;;;20.60;99.90;;;;;;5016819;28;20037;-73
2023/10/14 13:23:30;;;;;;;8.13;1.45;;;20.80;99.90;;;;;;5016751;28;20080;-74
2023/10/14 13:25:57;;;;;;;8.25;2.08;;;20.90;99.90;;;;;;5017765;28;20030;-73
2023/10/14 13:28:22;;;;;;;6.97;1.35;;;21.40;99.90;;;;;;5017879;28;20025;-75
2023/10/14 13:30:49;;;;;;;6.90;1.95;;;21.60;99.90;;;;;;5017830;28;20018;-75
2023/10/14 13:33:16;;;;;;;5.82;1.15;;;21.50;99.90;;;;;;5017650;28;20025;-66